• Join FlightAware (Why Join?)
  • Login
  • US Flag 
10:48AM EDT


 

Airport Tracker/Info


-or-


 

Live Flight TrackerFlight Track Log ✈ AAL2007 ✈ 29-Apr-2013 ✈ KORD - KAUS

Flight Track Log - Related Links

Times and Time Zones

All times are in EDT time to prevent confusion due to time zone crossing. See the AAL2007 flight status page for this flight to view local times or setup timezone preferences in your user account.

Time Position Orientation Groundspeed Altitude Reporting Facility
EDT Latitude Longitude Course Direction KTS MPH feet Rate Location/Type
06:17PM 41.9333 -87.9167 207° Southwest 172 198 2,500  Level Chicago TRACON
06:18PM 41.8833 -87.9000 166° South 202 232 3,800 2,040 Climbing Chicago TRACON
06:19PM 41.7119 -88.1767 201° Southwest  Level Estimated
06:19PM 41.8086 -87.9311 197° South 246 283 6,800  Level Chicago Center
06:20PM 41.6219 -88.2662 197° South  Level Estimated
06:20PM 41.7433 -87.9758 207° Southwest 266 306 9,400  Level Chicago Center
06:21PM 41.5200 -88.2033 155° Southeast  Level FlightAware Approximate
06:21PM 41.6742 -88.0225 207° Southwest 283 326 11,600  Level Chicago Center
06:22PM 41.4304 -88.2934 207° Southwest  Level Estimated
06:22PM 41.5758 -88.0967 209° Southwest 356 410 13,300  Level Chicago Center
06:23PM 41.4783 -88.1467 201° Southwest 381 438 15,300 2,100 Climbing Chicago Center
06:24PM 41.3767 -88.1942 199° South 401 461 17,700 2,160 Climbing Chicago Center
06:25PM 41.2697 -88.2411 198° South 410 472 19,800 1,980 Climbing Chicago Center
06:26PM 41.1375 -88.3006 199° South 418 481 21,900 1,680 Climbing Chicago Center
06:27PM 41.0256 -88.3525 199° South 427 491 23,400 1,440 Climbing Chicago Center
06:28PM 40.9097 -88.4031 198° South 438 504 25,000 1,440 Climbing Chicago Center
06:29PM 40.7922 -88.4572 199° South 447 514 26,400 1,320 Climbing Chicago Center
06:30PM 40.6808 -88.5325 207° Southwest 454 522 27,800 1,440 Climbing Chicago Center
06:31PM 40.5703 -88.6586 221° Southwest 444 511 29,400 1,380 Climbing Chicago Center
06:32PM 40.4764 -88.7617 220° Southwest 442 509 30,700 1,140 Climbing Chicago Center
06:33PM 40.3917 -88.8536 220° Southwest 434 499 31,800 600 Climbing Chicago Center
06:34PM 40.2997 -88.9542 220° Southwest 431 496 32,000 60 Climbing Chicago Center
06:35PM 40.1878 -89.0761 220° Southwest 434 499 32,000  Level Chicago Center
06:36PM 40.1117 -89.1575 219° Southwest 433 498 32,000  Level Kansas City Center
06:37PM 40.0006 -89.2775 220° Southwest 433 498 32,000  Level Kansas City Center
06:38PM 39.9078 -89.3781 220° Southwest 432 497 32,000  Level Kansas City Center
06:39PM 39.8158 -89.4761 219° Southwest 430 495 32,000  Level Kansas City Center
06:40PM 39.7236 -89.5758 220° Southwest 428 493 32,000  Level Kansas City Center
06:41PM 39.6331 -89.6711 219° Southwest 428 493 32,000  Level Kansas City Center
06:43PM 39.5408 -89.7703 220° Southwest 430 495 32,000  Level Kansas City Center
06:44PM 39.4294 -89.8894 220° Southwest 433 498 32,000  Level Kansas City Center
06:45PM 39.3364 -89.9878 219° Southwest 433 498 32,000  Level Kansas City Center
06:46PM 39.2442 -90.0847 219° Southwest 431 496 32,000  Level Kansas City Center
06:47PM 39.1500 -90.1822 219° Southwest 433 498 32,000  Level Kansas City Center
06:48PM 39.0572 -90.2794 219° Southwest 432 497 32,000  Level Kansas City Center
06:49PM 38.9656 -90.3756 219° Southwest 431 496 32,000  Level Kansas City Center
06:50PM 38.8506 -90.4956 219° Southwest 430 495 32,000  Level Kansas City Center
06:51PM 38.7592 -90.5972 221° Southwest 432 497 32,000  Level Kansas City Center
06:52PM 38.6789 -90.6942 223° Southwest 435 501 32,000  Level Kansas City Center
06:53PM 38.5900 -90.7947 221° Southwest 432 497 32,000  Level Kansas City Center
06:54PM 38.4831 -90.9167 222° Southwest 432 497 32,000  Level Kansas City Center
06:55PM 38.3939 -91.0181 222° Southwest 435 501 32,000  Level Kansas City Center
06:56PM 38.3050 -91.1183 222° Southwest 429 494 32,000  Level Kansas City Center
06:57PM 38.2158 -91.2211 222° Southwest 432 497 32,000  Level Kansas City Center
06:58PM 38.1131 -91.3358 221° Southwest 430 495 32,000  Level Kansas City Center
06:59PM 38.0222 -91.4389 222° Southwest 433 498 32,000  Level Kansas City Center
07:00PM 37.9308 -91.5408 221° Southwest 433 498 32,000  Level Kansas City Center
07:01PM 37.8408 -91.6422 222° Southwest 431 496 32,000  Level Kansas City Center
07:02PM 37.7494 -91.7447 222° Southwest 433 498 32,000  Level Kansas City Center
07:03PM 37.6589 -91.8467 222° Southwest 433 498 32,000  Level Kansas City Center
07:04PM 37.5678 -91.9472 221° Southwest 431 496 32,000  Level Kansas City Center
07:05PM 37.4586 -92.0692 222° Southwest 431 496 32,000  Level Kansas City Center
07:06PM 37.3672 -92.1708 221° Southwest 434 499 32,000  Level Kansas City Center
07:07PM 37.2764 -92.2714 221° Southwest 433 498 32,000  Level Kansas City Center
07:08PM 37.1864 -92.3697 221° Southwest 429 494 32,000  Level Kansas City Center
07:09PM 37.0969 -92.4686 221° Southwest 427 491 32,000  Level Kansas City Center
07:10PM 37.0050 -92.5667 220° Southwest 429 494 32,000  Level Kansas City Center
07:11PM 36.9150 -92.6658 221° Southwest 429 494 32,000  Level Kansas City Center
07:12PM 36.8083 -92.7825 221° Southwest 432 497 32,000  Level Memphis Center
07:13PM 36.7275 -92.8681 220° Southwest 432 497 32,000  Level Memphis Center
07:14PM 36.6358 -92.9686 221° Southwest 437 503 32,000  Level Memphis Center
07:15PM 36.5419 -93.0664 220° Southwest 437 503 32,000  Level Memphis Center
07:16PM 36.4503 -93.1614 220° Southwest 437 503 32,000  Level Memphis Center
07:17PM 36.3564 -93.2611 221° Southwest 442 509 32,000  Level Memphis Center
07:18PM 36.2644 -93.3583 220° Southwest 437 503 32,000  Level Memphis Center
07:19PM 36.1722 -93.4578 221° Southwest 437 503 32,000  Level Memphis Center
07:20PM 36.0781 -93.5544 220° Southwest 437 503 32,000  Level Memphis Center
07:21PM 35.9839 -93.6533 220° Southwest 442 509 32,000  Level Memphis Center
07:22PM 35.8914 -93.7519 221° Southwest 442 509 32,000  Level Memphis Center
07:23PM 35.7992 -93.8481 220° Southwest 442 509 32,000  Level Memphis Center
07:24PM 35.6917 -93.9561 219° Southwest 442 509 32,000  Level Memphis Center
07:25PM 35.5972 -94.0567 221° Southwest 442 509 32,000  Level Memphis Center
07:26PM 35.5025 -94.1519 219° Southwest 442 509 32,000  Level Memphis Center
07:27PM 35.5065 -94.1459 219° Southwest  Level FlightAware Approximate
07:27PM 35.4078 -94.2494 220° Southwest 448 516 32,000  Level Memphis Center
07:28PM 35.3111 -94.3314 215° Southwest 442 509 32,000  Level Memphis Center
07:29PM 35.2067 -94.4078 211° Southwest 442 509 32,000  Level Memphis Center
07:31PM 35.0519 -94.5325 213° Southwest 416 479 32,000  Level Fort Worth Center
07:32PM 34.9494 -94.6044 210° Southwest 421 484 32,000  Level Fort Worth Center
07:33PM 34.8572 -94.6808 214° Southwest 433 498 32,000  Level Fort Worth Center
07:34PM 34.7544 -94.7600 212° Southwest 433 498 32,000  Level Fort Worth Center
07:35PM 34.6539 -94.8361 212° Southwest 440 506 32,000  Level Fort Worth Center
07:36PM 34.5511 -94.9125 211° Southwest 440 506 32,000  Level Fort Worth Center
07:37PM 34.4483 -94.9908 212° Southwest 440 506 32,000  Level Fort Worth Center
07:38PM 34.3433 -95.0642 210° Southwest 440 506 32,000  Level Fort Worth Center
07:39PM 34.2406 -95.1425 212° Southwest 440 506 32,000  Level Fort Worth Center
07:40PM 34.1417 -95.2178 212° Southwest 440 506 32,000  Level Fort Worth Center
07:41PM 34.0386 -95.2931 211° Southwest 440 506 32,000  Level Fort Worth Center
07:42PM 33.9333 -95.3683 211° Southwest 440 506 32,000  Level Fort Worth Center
07:43PM 33.8303 -95.4431 211° Southwest 440 506 32,000  Level Fort Worth Center
07:44PM 33.7250 -95.5206 211° Southwest 440 506 32,000  Level Fort Worth Center
07:45PM 33.6239 -95.5950 212° Southwest 440 506 32,000  Level Fort Worth Center
07:46PM 33.5122 -95.6769 211° Southwest 435 501 32,000  Level Fort Worth Center
07:47PM 33.4172 -95.7411 209° Southwest 435 501 32,000  Level Fort Worth Center
07:48PM 33.3056 -95.8178 210° Southwest 435 501 32,000  Level Fort Worth Center
07:49PM 33.2042 -95.8842 209° Southwest 435 501 32,000  Level Fort Worth Center
07:50PM 33.1006 -95.9578 211° Southwest 435 501 32,000  Level Fort Worth Center
07:51PM 32.9989 -96.0239 209° Southwest 430 495 32,000  Level Fort Worth Center
07:52PM 32.8953 -96.0922 209° Southwest 430 495 32,000  Level Fort Worth Center
07:53PM 32.7939 -96.1631 210° Southwest 430 495 32,000  Level Fort Worth Center
07:54PM 32.7006 -96.2283 210° Southwest 430 495 32,000  Level Fort Worth Center
07:55PM 32.5883 -96.3039 210° Southwest 430 495 32,000  Level Fort Worth Center
07:56PM 32.4950 -96.3667 210° Southwest 430 495 32,000  Level Fort Worth Center
07:57PM 32.3828 -96.4392 209° Southwest 430 495 32,000 -600 Level Fort Worth Center
07:58PM 32.2914 -96.5017 210° Southwest 430 495 30,800 -1,740 Descending Fort Worth Center
07:59PM 32.1833 -96.5739 210° Southwest 417 480 28,600 -2,220 Descending Fort Worth Center
08:00PM 32.0878 -96.6408 211° Southwest 411 473 26,400 -2,100 Descending Fort Worth Center
08:01PM 31.9922 -96.7006 208° Southwest 396 456 24,500 -2,040 Descending Fort Worth Center
08:02PM 31.9006 -96.7625 210° Southwest 391 450 22,400 -1,260 Descending Fort Worth Center
08:03PM 31.8069 -96.8194 207° Southwest 386 444 22,000 -240 Descending Fort Worth Center
08:04PM 31.7133 -96.8833 210° Southwest 386 444 22,000  Level Fort Worth Center
08:05PM 31.6153 -96.9475 209° Southwest 392 451 22,000  Level Fort Worth Center
08:06PM 31.5300 -97.0014 208° Southwest 392 451 22,000  Level Fort Worth Center
08:07PM 31.4364 -97.0617 209° Southwest 396 456 22,000  Level Houston Center
08:08PM 31.3389 -97.1261 209° Southwest 397 457 22,000 -900 Level Houston Center
08:09PM 31.2425 -97.1878 209° Southwest 393 452 20,200 -1,980 Descending Houston Center
08:10PM 31.1433 -97.2358 203° Southwest 383 441 18,000 -1,920 Descending Houston Center
08:11PM 31.0425 -97.2628 193° South 371 427 16,300 -1,800 Descending Houston Center
08:12PM 30.9422 -97.2703 184° South 358 412 14,400 -1,440 Descending Houston Center
08:13PM 30.8447 -97.2986 194° South 320 368 13,300 -780 Descending Houston Center
08:14PM 30.7658 -97.3361 202° Southwest 309 356 12,900 -960 Descending Houston Center
08:15PM 30.6883 -97.3694 200° South 298 343 11,400 -1,800 Descending Houston Center
08:16PM 30.6167 -97.4183 210° Southwest 296 341 9,200 -2,100 Descending Houston Center
08:17PM 30.5522 -97.4800 219° Southwest 297 342 7,100 -1,800 Descending Houston Center
08:18PM 30.4844 -97.5311 213° Southwest 291 335 5,600 -1,380 Descending Houston Center
08:19PM 30.4106 -97.5856 212° Southwest 270 311 4,300 -1,200 Descending Houston Center
08:20PM 30.3500 -97.6294 212° Southwest 257 296 3,200 -1,080 Descending Houston Center